sensor_id;sensor_type;location;lat;lon;timestamp;pressure;altitude;pressure_sealevel;temperature;humidity
49040;BME280;36811;49.732;13.402;2023-01-09T00:01:25;96461.72;;;4.90;86.05
49040;BME280;36811;49.732;13.402;2023-01-09T00:03:51;96472.84;;;4.97;86.34
49040;BME280;36811;49.732;13.402;2023-01-09T00:06:17;96470.25;;;5.02;87.23
49040;BME280;36811;49.732;13.402;2023-01-09T00:08:42;96470.50;;;5.06;87.06
49040;BME280;36811;49.732;13.402;2023-01-09T00:11:08;96457.38;;;5.11;86.38
49040;BME280;36811;49.732;13.402;2023-01-09T00:13:33;96452.09;;;5.11;86.80
49040;BME280;36811;49.732;13.402;2023-01-09T00:15:59;96453.13;;;5.05;86.88
49040;BME280;36811;49.732;13.402;2023-01-09T00:18:24;96440.41;;;4.97;86.96
49040;BME280;36811;49.732;13.402;2023-01-09T00:20:50;96432.13;;;4.83;87.03
49040;BME280;36811;49.732;13.402;2023-01-09T00:23:16;96426.56;;;4.75;86.86
49040;BME280;36811;49.732;13.402;2023-01-09T00:25:41;96420.56;;;4.84;88.12
49040;BME280;36811;49.732;13.402;2023-01-09T00:28:06;96417.72;;;4.59;87.18
49040;BME280;36811;49.732;13.402;2023-01-09T00:30:32;96401.25;;;4.42;88.30
49040;BME280;36811;49.732;13.402;2023-01-09T00:32:57;96401.75;;;4.39;88.27
49040;BME280;36811;49.732;13.402;2023-01-09T00:35:23;96391.00;;;4.45;88.81
49040;BME280;36811;49.732;13.402;2023-01-09T00:37:49;96393.41;;;4.47;88.56
49040;BME280;36811;49.732;13.402;2023-01-09T00:40:15;96380.88;;;4.27;88.70
49040;BME280;36811;49.732;13.402;2023-01-09T00:42:41;96362.81;;;4.09;89.84
49040;BME280;36811;49.732;13.402;2023-01-09T00:45:08;96363.47;;;3.95;91.14
49040;BME280;36811;49.732;13.402;2023-01-09T00:47:36;96351.19;;;4.05;91.53
49040;BME280;36811;49.732;13.402;2023-01-09T00:50:07;96353.53;;;4.02;91.01
49040;BME280;36811;49.732;13.402;2023-01-09T00:52:34;96359.91;;;4.11;91.67
49040;BME280;36811;49.732;13.402;2023-01-09T00:55:02;96365.81;;;4.23;90.32
49040;BME280;36811;49.732;13.402;2023-01-09T00:57:28;96368.97;;;4.20;90.26
49040;BME280;36811;49.732;13.402;2023-01-09T00:59:54;96368.41;;;4.18;89.77
49040;BME280;36811;49.732;13.402;2023-01-09T01:02:19;96371.38;;;4.26;90.62
49040;BME280;36811;49.732;13.402;2023-01-09T01:04:45;96363.94;;;4.18;89.98
49040;BME280;36811;49.732;13.402;2023-01-09T01:07:28;96358.78;;;4.02;90.39
49040;BME280;36811;49.732;13.402;2023-01-09T01:10:04;96357.25;;;4.06;91.62
49040;BME280;36811;49.732;13.402;2023-01-09T01:12:30;96344.38;;;4.09;90.20
49040;BME280;36811;49.732;13.402;2023-01-09T01:14:56;96339.78;;;3.95;91.06
49040;BME280;36811;49.732;13.402;2023-01-09T01:17:21;96331.91;;;3.95;91.62
49040;BME280;36811;49.732;13.402;2023-01-09T01:19:47;96324.53;;;3.97;92.10
49040;BME280;36811;49.732;13.402;2023-01-09T01:22:12;96320.94;;;4.08;91.34
49040;BME280;36811;49.732;13.402;2023-01-09T01:24:41;96311.41;;;3.97;91.15
49040;BME280;36811;49.732;13.402;2023-01-09T01:27:06;96307.06;;;3.85;92.37
49040;BME280;36811;49.732;13.402;2023-01-09T01:29:31;96309.81;;;3.69;93.14
49040;BME280;36811;49.732;13.402;2023-01-09T01:31:57;96307.22;;;3.74;93.81
49040;BME280;36811;49.732;13.402;2023-01-09T01:34:22;96300.22;;;3.84;93.40
49040;BME280;36811;49.732;13.402;2023-01-09T01:36:48;96301.09;;;3.95;93.22
49040;BME280;36811;49.732;13.402;2023-01-09T01:39:14;96306.13;;;3.97;93.17
49040;BME280;36811;49.732;13.402;2023-01-09T01:41:40;96295.16;;;4.05;93.30
49040;BME280;36811;49.732;13.402;2023-01-09T01:44:53;96294.75;;;4.23;92.70
49040;BME280;36811;49.732;13.402;2023-01-09T01:46:51;96290.22;;;4.13;91.77
49040;BME280;36811;49.732;13.402;2023-01-09T01:49:17;96282.47;;;3.97;92.64
49040;BME280;36811;49.732;13.402;2023-01-09T01:51:45;96273.91;;;3.84;93.20
49040;BME280;36811;49.732;13.402;2023-01-09T01:54:13;96272.31;;;3.78;94.15
49040;BME280;36811;49.732;13.402;2023-01-09T01:56:50;96271.34;;;3.90;93.66
49040;BME280;36811;49.732;13.402;2023-01-09T01:59:37;96256.91;;;3.92;92.77
49040;BME280;36811;49.732;13.402;2023-01-09T02:02:04;96244.72;;;3.81;93.13
49040;BME280;36811;49.732;13.402;2023-01-09T02:04:30;96232.91;;;3.83;93.02
49040;BME280;36811;49.732;13.402;2023-01-09T02:06:57;96227.06;;;3.76;93.88
49040;BME280;36811;49.732;13.402;2023-01-09T02:09:24;96229.38;;;3.73;93.95
49040;BME280;36811;49.732;13.402;2023-01-09T02:11:53;96214.91;;;3.70;94.73
49040;BME280;36811;49.732;13.402;2023-01-09T02:14:21;96217.88;;;3.79;95.08
49040;BME280;36811;49.732;13.402;2023-01-09T02:27:06;96264.16;;;4.12;92.88
49040;BME280;36811;49.732;13.402;2023-01-09T02:34:53;96231.50;;;4.08;92.76
49040;BME280;36811;49.732;13.402;2023-01-09T02:37:23;96215.38;;;3.94;93.92
49040;BME280;36811;49.732;13.402;2023-01-09T02:39:55;96214.16;;;4.07;93.57
49040;BME280;36811;49.732;13.402;2023-01-09T02:42:22;96198.59;;;4.05;93.13
49040;BME280;36811;49.732;13.402;2023-01-09T02:44:49;96194.63;;;4.03;93.58
49040;BME280;36811;49.732;13.402;2023-01-09T02:49:50;96190.72;;;4.05;93.57
49040;BME280;36811;49.732;13.402;2023-01-09T02:58:04;96196.09;;;4.25;92.67
49040;BME280;36811;49.732;13.402;2023-01-09T03:07:48;96206.72;;;4.40;91.45
49040;BME280;36811;49.732;13.402;2023-01-09T03:10:22;96206.63;;;4.25;91.83
49040;BME280;36811;49.732;13.402;2023-01-09T03:12:49;96195.66;;;4.38;91.97
49040;BME280;36811;49.732;13.402;2023-01-09T03:15:17;96202.28;;;4.46;91.66
49040;BME280;36811;49.732;13.402;2023-01-09T03:17:45;96208.63;;;4.50;91.70
49040;BME280;36811;49.732;13.402;2023-01-09T03:20:13;96220.22;;;4.49;91.92
49040;BME280;36811;49.732;13.402;2023-01-09T03:22:44;96214.41;;;4.47;92.03
49040;BME280;36811;49.732;13.402;2023-01-09T03:25:11;96215.47;;;4.51;91.81
49040;BME280;36811;49.732;13.402;2023-01-09T03:27:37;96212.06;;;4.56;91.61
49040;BME280;36811;49.732;13.402;2023-01-09T03:30:02;96213.97;;;4.60;91.26
49040;BME280;36811;49.732;13.402;2023-01-09T03:32:28;96202.13;;;4.63;90.79
49040;BME280;36811;49.732;13.402;2023-01-09T03:34:53;96208.44;;;4.67;90.99
49040;BME280;36811;49.732;13.402;2023-01-09T03:37:19;96205.03;;;4.71;90.79
49040;BME280;36811;49.732;13.402;2023-01-09T03:39:44;96208.47;;;4.72;90.42
49040;BME280;36811;49.732;13.402;2023-01-09T03:42:10;96208.75;;;4.75;90.87
49040;BME280;36811;49.732;13.402;2023-01-09T03:44:35;96210.34;;;4.81;90.72
49040;BME280;36811;49.732;13.402;2023-01-09T03:47:01;96219.03;;;4.77;89.98
49040;BME280;36811;49.732;13.402;2023-01-09T03:49:26;96226.66;;;4.78;90.00
49040;BME280;36811;49.732;13.402;2023-01-09T03:51:51;96242.72;;;4.77;90.15
49040;BME280;36811;49.732;13.402;2023-01-09T03:54:17;96243.44;;;4.62;90.43
49040;BME280;36811;49.732;13.402;2023-01-09T03:56:42;96237.38;;;4.62;90.17
49040;BME280;36811;49.732;13.402;2023-01-09T03:59:08;96232.94;;;4.67;90.42
49040;BME280;36811;49.732;13.402;2023-01-09T04:01:33;96227.47;;;4.79;90.27
49040;BME280;36811;49.732;13.402;2023-01-09T04:03:59;96230.63;;;4.81;90.32
49040;BME280;36811;49.732;13.402;2023-01-09T04:06:24;96219.31;;;4.80;89.70
49040;BME280;36811;49.732;13.402;2023-01-09T04:08:50;96224.06;;;4.83;90.06
49040;BME280;36811;49.732;13.402;2023-01-09T04:11:15;96228.00;;;4.81;89.60
49040;BME280;36811;49.732;13.402;2023-01-09T04:13:42;96231.41;;;4.81;89.87
49040;BME280;36811;49.732;13.402;2023-01-09T04:16:09;96221.41;;;4.83;90.09
49040;BME280;36811;49.732;13.402;2023-01-09T04:18:34;96223.53;;;4.81;90.06
49040;BME280;36811;49.732;13.402;2023-01-09T04:21:00;96218.75;;;4.78;89.54
49040;BME280;36811;49.732;13.402;2023-01-09T04:23:25;96222.69;;;4.76;90.16
49040;BME280;36811;49.732;13.402;2023-01-09T04:25:51;96218.22;;;4.76;90.54
49040;BME280;36811;49.732;13.402;2023-01-09T04:28:16;96214.81;;;4.76;90.55
49040;BME280;36811;49.732;13.402;2023-01-09T04:30:41;96206.63;;;4.72;90.51
49040;BME280;36811;49.732;13.402;2023-01-09T04:33:07;96199.25;;;4.69;91.07
49040;BME280;36811;49.732;13.402;2023-01-09T04:35:32;96200.59;;;4.77;91.23
49040;BME280;36811;49.732;13.402;2023-01-09T04:37:58;96195.06;;;4.83;91.18
49040;BME280;36811;49.732;13.402;2023-01-09T04:40:25;96195.06;;;4.83;90.95
49040;BME280;36811;49.732;13.402;2023-01-09T04:42:51;96194.06;;;4.89;91.33
49040;BME280;36811;49.732;13.402;2023-01-09T04:45:16;96193.56;;;4.97;90.93
49040;BME280;36811;49.732;13.402;2023-01-09T04:47:42;96196.47;;;5.01;90.65
49040;BME280;36811;49.732;13.402;2023-01-09T04:50:08;96200.16;;;5.00;90.29
49040;BME280;36811;49.732;13.402;2023-01-09T04:52:34;96209.38;;;4.97;90.24
49040;BME280;36811;49.732;13.402;2023-01-09T04:54:59;96205.91;;;4.92;90.02
49040;BME280;36811;49.732;13.402;2023-01-09T04:57:25;96207.22;;;4.84;90.29
49040;BME280;36811;49.732;13.402;2023-01-09T04:59:50;96204.56;;;4.84;90.07
49040;BME280;36811;49.732;13.402;2023-01-09T05:02:16;96205.84;;;4.72;91.08
49040;BME280;36811;49.732;13.402;2023-01-09T05:04:41;96211.09;;;4.67;90.60
49040;BME280;36811;49.732;13.402;2023-01-09T05:07:07;96210.56;;;4.65;90.89
49040;BME280;36811;49.732;13.402;2023-01-09T05:09:32;96212.09;;;4.61;90.78
49040;BME280;36811;49.732;13.402;2023-01-09T05:11:58;96201.31;;;4.62;91.05
49040;BME280;36811;49.732;13.402;2023-01-09T05:14:24;96189.16;;;4.56;91.49
49040;BME280;36811;49.732;13.402;2023-01-09T05:16:49;96203.44;;;4.60;91.31
49040;BME280;36811;49.732;13.402;2023-01-09T05:19:15;96194.47;;;4.61;91.28
49040;BME280;36811;49.732;13.402;2023-01-09T05:21:40;96189.72;;;4.63;91.52
49040;BME280;36811;49.732;13.402;2023-01-09T05:24:05;96194.22;;;4.63;91.50
49040;BME280;36811;49.732;13.402;2023-01-09T05:26:31;96190.78;;;4.62;91.51
49040;BME280;36811;49.732;13.402;2023-01-09T05:28:57;96200.78;;;4.55;90.94
49040;BME280;36811;49.732;13.402;2023-01-09T05:31:23;96198.41;;;4.59;91.27
49040;BME280;36811;49.732;13.402;2023-01-09T05:33:48;96197.88;;;4.57;90.82
49040;BME280;36811;49.732;13.402;2023-01-09T05:36:14;96209.41;;;4.50;91.13
49040;BME280;36811;49.732;13.402;2023-01-09T05:38:39;96215.72;;;4.44;91.28
49040;BME280;36811;49.732;13.402;2023-01-09T05:41:05;96212.53;;;4.42;92.06
49040;BME280;36811;49.732;13.402;2023-01-09T05:43:31;96212.56;;;4.47;92.19
49040;BME280;36811;49.732;13.402;2023-01-09T05:45:57;96210.50;;;4.55;91.97
49040;BME280;36811;49.732;13.402;2023-01-09T05:48:22;96212.38;;;4.59;92.08
49040;BME280;36811;49.732;13.402;2023-01-09T05:50:48;96204.16;;;4.56;91.56
49040;BME280;36811;49.732;13.402;2023-01-09T05:53:13;96205.78;;;4.62;91.84
49040;BME280;36811;49.732;13.402;2023-01-09T05:55:39;96211.84;;;4.62;91.37
49040;BME280;36811;49.732;13.402;2023-01-09T05:58:04;96208.69;;;4.60;91.43
49040;BME280;36811;49.732;13.402;2023-01-09T06:00:29;96210.25;;;4.61;91.67
49040;BME280;36811;49.732;13.402;2023-01-09T06:02:55;96214.97;;;4.54;91.30
49040;BME280;36811;49.732;13.402;2023-01-09T06:05:21;96214.69;;;4.50;91.61
49040;BME280;36811;49.732;13.402;2023-01-09T06:07:46;96224.94;;;4.47;91.92
49040;BME280;36811;49.732;13.402;2023-01-09T06:10:12;96225.44;;;4.44;91.34
49040;BME280;36811;49.732;13.402;2023-01-09T06:12:38;96229.66;;;4.45;91.62
49040;BME280;36811;49.732;13.402;2023-01-09T06:15:04;96232.31;;;4.45;91.50
49040;BME280;36811;49.732;13.402;2023-01-09T06:17:30;96234.94;;;4.45;91.92
49040;BME280;36811;49.732;13.402;2023-01-09T06:19:55;96225.75;;;4.47;92.23
49040;BME280;36811;49.732;13.402;2023-01-09T06:22:21;96218.63;;;4.53;92.14
49040;BME280;36811;49.732;13.402;2023-01-09T06:24:47;96223.38;;;4.51;91.85
49040;BME280;36811;49.732;13.402;2023-01-09T06:27:12;96227.84;;;4.50;91.38
49040;BME280;36811;49.732;13.402;2023-01-09T06:29:38;96241.78;;;4.51;91.54
49040;BME280;36811;49.732;13.402;2023-01-09T06:32:04;96235.47;;;4.47;91.90
49040;BME280;36811;49.732;13.402;2023-01-09T06:34:29;96240.72;;;4.47;91.47
49040;BME280;36811;49.732;13.402;2023-01-09T06:36:55;96238.59;;;4.44;91.93
49040;BME280;36811;49.732;13.402;2023-01-09T06:39:20;96245.72;;;4.48;91.96
49040;BME280;36811;49.732;13.402;2023-01-09T06:41:46;96234.97;;;4.50;92.12
49040;BME280;36811;49.732;13.402;2023-01-09T06:44:11;96242.06;;;4.49;91.78
49040;BME280;36811;49.732;13.402;2023-01-09T06:46:37;96240.72;;;4.47;91.96
49040;BME280;36811;49.732;13.402;2023-01-09T06:49:02;96250.72;;;4.45;91.58
49040;BME280;36811;49.732;13.402;2023-01-09T06:51:28;96250.47;;;4.46;92.03
49040;BME280;36811;49.732;13.402;2023-01-09T06:53:53;96250.22;;;4.53;91.83
49040;BME280;36811;49.732;13.402;2023-01-09T06:56:19;96256.59;;;4.57;91.86
49040;BME280;36811;49.732;13.402;2023-01-09T06:58:44;96257.13;;;4.59;92.03
49040;BME280;36811;49.732;13.402;2023-01-09T07:01:10;96259.25;;;4.62;91.68
49040;BME280;36811;49.732;13.402;2023-01-09T07:03:36;96260.31;;;4.66;91.54
49040;BME280;36811;49.732;13.402;2023-01-09T07:06:01;96259.53;;;4.71;91.85
49040;BME280;36811;49.732;13.402;2023-01-09T07:08:27;96264.06;;;4.75;91.13
49040;BME280;36811;49.732;13.402;2023-01-09T07:10:53;96274.84;;;4.74;91.42
49040;BME280;36811;49.732;13.402;2023-01-09T07:13:19;96275.13;;;4.77;91.01
49040;BME280;36811;49.732;13.402;2023-01-09T07:15:45;96280.66;;;4.81;91.54
49040;BME280;36811;49.732;13.402;2023-01-09T07:18:10;96288.56;;;4.81;91.42
49040;BME280;36811;49.732;13.402;2023-01-09T07:20:37;96289.94;;;4.88;91.54
49040;BME280;36811;49.732;13.402;2023-01-09T07:23:03;96296.56;;;4.96;91.00
49040;BME280;36811;49.732;13.402;2023-01-09T07:25:28;96287.88;;;4.95;91.07
49040;BME280;36811;49.732;13.402;2023-01-09T07:27:54;96291.84;;;4.98;90.88
49040;BME280;36811;49.732;13.402;2023-01-09T07:30:19;96295.00;;;5.00;90.45
49040;BME280;36811;49.732;13.402;2023-01-09T07:32:45;96285.81;;;5.02;90.15
49040;BME280;36811;49.732;13.402;2023-01-09T07:35:10;96279.50;;;5.08;90.34
49040;BME280;36811;49.732;13.402;2023-01-09T07:37:36;96283.44;;;5.06;90.14
49040;BME280;36811;49.732;13.402;2023-01-09T07:40:01;96291.09;;;5.07;90.32
49040;BME280;36811;49.732;13.402;2023-01-09T07:42:28;96283.75;;;5.14;89.75
49040;BME280;36811;49.732;13.402;2023-01-09T07:44:53;96291.56;;;4.99;90.46
49040;BME280;36811;49.732;13.402;2023-01-09T07:47:19;96296.38;;;5.07;90.77
49040;BME280;36811;49.732;13.402;2023-01-09T07:49:44;96300.06;;;5.11;90.46
49040;BME280;36811;49.732;13.402;2023-01-09T07:52:09;96304.81;;;5.14;90.33
49040;BME280;36811;49.732;13.402;2023-01-09T07:54:35;96306.69;;;5.19;89.88
49040;BME280;36811;49.732;13.402;2023-01-09T07:57:00;96303.06;;;5.30;90.44
49040;BME280;36811;49.732;13.402;2023-01-09T07:59:26;96292.22;;;5.27;90.21
49040;BME280;36811;49.732;13.402;2023-01-09T08:01:54;96297.00;;;5.35;89.75
49040;BME280;36811;49.732;13.402;2023-01-09T08:04:20;96293.59;;;5.44;90.32
49040;BME280;36811;49.732;13.402;2023-01-09T08:06:45;96295.47;;;5.44;89.65
49040;BME280;36811;49.732;13.402;2023-01-09T08:09:11;96298.66;;;5.51;89.45
49040;BME280;36811;49.732;13.402;2023-01-09T08:11:38;96305.78;;;5.55;89.05
49040;BME280;36811;49.732;13.402;2023-01-09T08:14:04;96298.91;;;5.59;89.36
49040;BME280;36811;49.732;13.402;2023-01-09T08:16:29;96304.22;;;5.74;89.78
49040;BME280;36811;49.732;13.402;2023-01-09T08:18:55;96295.81;;;5.83;88.89
49040;BME280;36811;49.732;13.402;2023-01-09T08:21:20;96304.28;;;5.95;88.64
49040;BME280;36811;49.732;13.402;2023-01-09T08:23:46;96308.81;;;6.04;88.87
49040;BME280;36811;49.732;13.402;2023-01-09T08:26:11;96316.19;;;6.07;87.86
49040;BME280;36811;49.732;13.402;2023-01-09T08:28:37;96318.81;;;6.07;88.43
49040;BME280;36811;49.732;13.402;2023-01-09T08:31:02;96328.34;;;6.08;88.85
49040;BME280;36811;49.732;13.402;2023-01-09T08:33:28;96327.84;;;6.16;89.31
49040;BME280;36811;49.732;13.402;2023-01-09T08:35:54;96339.97;;;6.27;89.64
49040;BME280;36811;49.732;13.402;2023-01-09T08:38:19;96339.44;;;6.30;89.44
49040;BME280;36811;49.732;13.402;2023-01-09T08:40:46;96350.00;;;6.35;89.59
49040;BME280;36811;49.732;13.402;2023-01-09T08:43:12;96356.38;;;6.45;89.47
49040;BME280;36811;49.732;13.402;2023-01-09T08:45:56;96362.44;;;6.50;89.38
49040;BME280;36811;49.732;13.402;2023-01-09T08:48:40;96369.31;;;6.56;89.30
49040;BME280;36811;49.732;13.402;2023-01-09T08:51:08;96376.69;;;6.59;89.08
49040;BME280;36811;49.732;13.402;2023-01-09T08:53:33;96375.91;;;6.64;89.21
49040;BME280;36811;49.732;13.402;2023-01-09T08:55:59;96375.66;;;6.65;89.18
49040;BME280;36811;49.732;13.402;2023-01-09T08:58:25;96389.63;;;6.71;88.99
49040;BME280;36811;49.732;13.402;2023-01-09T09:00:50;96384.09;;;6.72;88.93
49040;BME280;36811;49.732;13.402;2023-01-09T09:03:16;96394.91;;;6.71;88.80
49040;BME280;36811;49.732;13.402;2023-01-09T09:05:41;96396.00;;;6.70;89.29
49040;BME280;36811;49.732;13.402;2023-01-09T09:08:07;96389.91;;;6.69;89.25
49040;BME280;36811;49.732;13.402;2023-01-09T09:10:33;96394.41;;;6.69;89.28
49040;BME280;36811;49.732;13.402;2023-01-09T09:12:58;96396.25;;;6.73;89.54
49040;BME280;36811;49.732;13.402;2023-01-09T09:15:24;96393.34;;;6.80;89.24
49040;BME280;36811;49.732;13.402;2023-01-09T09:17:51;96407.09;;;6.87;88.99
49040;BME280;36811;49.732;13.402;2023-01-09T09:20:20;96407.06;;;6.97;88.66
49040;BME280;36811;49.732;13.402;2023-01-09T09:22:47;96402.81;;;7.11;88.02
49040;BME280;36811;49.732;13.402;2023-01-09T09:25:13;96409.97;;;7.26;88.24
49040;BME280;36811;49.732;13.402;2023-01-09T09:27:39;96409.66;;;7.42;87.33
49040;BME280;36811;49.732;13.402;2023-01-09T09:30:07;96407.78;;;7.53;86.92
49040;BME280;36811;49.732;13.402;2023-01-09T09:32:33;96406.69;;;7.54;86.44
49040;BME280;36811;49.732;13.402;2023-01-09T09:34:58;96404.31;;;7.52;86.57
49040;BME280;36811;49.732;13.402;2023-01-09T09:37:24;96420.72;;;7.54;86.59
49040;BME280;36811;49.732;13.402;2023-01-09T09:39:49;96427.59;;;7.60;86.37
49040;BME280;36811;49.732;13.402;2023-01-09T09:45:37;96411.91;;;7.79;86.00
49040;BME280;36811;49.732;13.402;2023-01-09T09:55:32;96417.19;;;7.89;85.58
49040;BME280;36811;49.732;13.402;2023-01-09T09:57:59;96415.84;;;7.92;84.60
49040;BME280;36811;49.732;13.402;2023-01-09T10:00:26;96415.81;;;7.97;84.77
49040;BME280;36811;49.732;13.402;2023-01-09T10:02:54;96414.22;;;7.96;84.22
49040;BME280;36811;49.732;13.402;2023-01-09T10:05:27;96420.03;;;7.98;84.08
49040;BME280;36811;49.732;13.402;2023-01-09T10:07:53;96420.06;;;7.93;84.67
49040;BME280;36811;49.732;13.402;2023-01-09T10:10:26;96416.59;;;7.97;84.93
49040;BME280;36811;49.732;13.402;2023-01-09T10:12:54;96421.13;;;7.97;84.09
49040;BME280;36811;49.732;13.402;2023-01-09T10:20:26;96424.81;;;7.96;83.86
49040;BME280;36811;49.732;13.402;2023-01-09T10:28:06;96432.69;;;8.11;82.25
49040;BME280;36811;49.732;13.402;2023-01-09T10:30:41;96431.84;;;8.20;82.51
49040;BME280;36811;49.732;13.402;2023-01-09T10:33:19;96433.44;;;8.21;82.22
49040;BME280;36811;49.732;13.402;2023-01-09T10:38:21;96431.81;;;8.30;81.64
49040;BME280;36811;49.732;13.402;2023-01-09T10:41:12;96433.63;;;8.35;80.48
49040;BME280;36811;49.732;13.402;2023-01-09T10:43:37;96444.53;;;8.28;80.82
49040;BME280;36811;49.732;13.402;2023-01-09T10:46:08;96444.22;;;8.35;80.58
49040;BME280;36811;49.732;13.402;2023-01-09T10:48:37;96444.50;;;8.39;80.52
49040;BME280;36811;49.732;13.402;2023-01-09T10:53:42;96456.44;;;8.31;79.89
49040;BME280;36811;49.732;13.402;2023-01-09T10:56:20;96457.53;;;8.15;80.38
49040;BME280;36811;49.732;13.402;2023-01-09T10:58:46;96465.25;;;8.16;81.51
49040;BME280;36811;49.732;13.402;2023-01-09T11:01:12;96458.13;;;8.07;81.58
49040;BME280;36811;49.732;13.402;2023-01-09T11:03:39;96465.31;;;7.96;82.62
49040;BME280;36811;49.732;13.402;2023-01-09T11:06:12;96462.94;;;7.90;81.21
49040;BME280;36811;49.732;13.402;2023-01-09T11:08:42;96467.75;;;7.83;81.82
49040;BME280;36811;49.732;13.402;2023-01-09T11:11:08;96461.41;;;7.79;81.84
49040;BME280;36811;49.732;13.402;2023-01-09T11:13:35;96469.06;;;7.80;80.07
49040;BME280;36811;49.732;13.402;2023-01-09T11:18:30;96481.75;;;7.88;80.28
49040;BME280;36811;49.732;13.402;2023-01-09T11:20:55;96479.38;;;7.87;80.75
49040;BME280;36811;49.732;13.402;2023-01-09T11:23:36;96490.22;;;7.90;81.11
49040;BME280;36811;49.732;13.402;2023-01-09T11:26:02;96490.53;;;7.74;80.10
49040;BME280;36811;49.732;13.402;2023-01-09T11:28:28;96498.53;;;7.48;80.84
49040;BME280;36811;49.732;13.402;2023-01-09T11:30:57;96512.28;;;7.35;84.38
49040;BME280;36811;49.732;13.402;2023-01-09T11:33:36;96506.47;;;7.08;84.06
49040;BME280;36811;49.732;13.402;2023-01-09T11:36:08;96499.59;;;6.87;86.77
49040;BME280;36811;49.732;13.402;2023-01-09T11:41:33;96500.91;;;6.99;86.95
49040;BME280;36811;49.732;13.402;2023-01-09T11:43:59;96510.16;;;7.12;87.95
49040;BME280;36811;49.732;13.402;2023-01-09T11:46:37;96509.38;;;7.27;86.01
49040;BME280;36811;49.732;13.402;2023-01-09T11:51:42;96503.03;;;7.38;84.93
49040;BME280;36811;49.732;13.402;2023-01-09T11:54:13;96505.13;;;7.51;84.85
49040;BME280;36811;49.732;13.402;2023-01-09T11:56:41;96509.84;;;7.64;83.88
49040;BME280;36811;49.732;13.402;2023-01-09T11:59:08;96518.59;;;7.64;82.93
49040;BME280;36811;49.732;13.402;2023-01-09T12:01:39;96523.63;;;7.61;82.47
49040;BME280;36811;49.732;13.402;2023-01-09T12:04:20;96517.03;;;7.63;81.79
49040;BME280;36811;49.732;13.402;2023-01-09T12:07:35;96515.44;;;7.57;82.16
49040;BME280;36811;49.732;13.402;2023-01-09T12:12:35;96521.00;;;7.56;81.89
49040;BME280;36811;49.732;13.402;2023-01-09T12:20:26;96531.00;;;7.69;81.46
49040;BME280;36811;49.732;13.402;2023-01-09T12:22:59;96529.97;;;7.75;81.12
49040;BME280;36811;49.732;13.402;2023-01-09T12:28:54;96542.91;;;7.72;80.76
49040;BME280;36811;49.732;13.402;2023-01-09T12:35:48;96541.84;;;7.93;79.71
49040;BME280;36811;49.732;13.402;2023-01-09T12:43:51;96547.09;;;8.03;77.89
49040;BME280;36811;49.732;13.402;2023-01-09T12:46:20;96544.44;;;8.03;79.24
49040;BME280;36811;49.732;13.402;2023-01-09T12:51:25;96530.19;;;7.99;78.52
49040;BME280;36811;49.732;13.402;2023-01-09T12:54:03;96530.44;;;7.87;78.26
49040;BME280;36811;49.732;13.402;2023-01-09T12:56:44;96532.88;;;7.84;79.18
49040;BME280;36811;49.732;13.402;2023-01-09T13:01:49;96541.31;;;7.91;79.56
49040;BME280;36811;49.732;13.402;2023-01-09T13:04:17;96531.25;;;7.93;78.71
49040;BME280;36811;49.732;13.402;2023-01-09T13:06:47;96546.06;;;7.99;79.25
49040;BME280;36811;49.732;13.402;2023-01-09T13:09:24;96548.94;;;8.07;79.69
49040;BME280;36811;49.732;13.402;2023-01-09T13:11:57;96550.56;;;7.98;80.23
49040;BME280;36811;49.732;13.402;2023-01-09T13:17:00;96547.59;;;8.10;78.25
49040;BME280;36811;49.732;13.402;2023-01-09T13:19:36;96555.31;;;8.01;78.21
49040;BME280;36811;49.732;13.402;2023-01-09T13:22:06;96561.16;;;7.98;78.17
49040;BME280;36811;49.732;13.402;2023-01-09T13:27:10;96556.13;;;8.02;78.49
49040;BME280;36811;49.732;13.402;2023-01-09T13:29:37;96571.44;;;8.10;77.73
49040;BME280;36811;49.732;13.402;2023-01-09T13:34:50;96569.09;;;8.03;78.27
49040;BME280;36811;49.732;13.402;2023-01-09T13:37:30;96586.31;;;8.01;78.36
49040;BME280;36811;49.732;13.402;2023-01-09T13:40:00;96587.31;;;8.10;79.10
49040;BME280;36811;49.732;13.402;2023-01-09T13:42:26;96590.25;;;8.03;77.35
49040;BME280;36811;49.732;13.402;2023-01-09T13:47:41;96588.69;;;7.92;78.24
49040;BME280;36811;49.732;13.402;2023-01-09T13:52:39;96596.63;;;7.92;78.21
49040;BME280;36811;49.732;13.402;2023-01-09T13:58:16;96598.53;;;7.82;78.49
49040;BME280;36811;49.732;13.402;2023-01-09T14:15:40;96601.16;;;7.61;79.34
49040;BME280;36811;49.732;13.402;2023-01-09T14:18:18;96597.44;;;7.62;79.49
49040;BME280;36811;49.732;13.402;2023-01-09T14:20:57;96608.31;;;7.71;78.83
49040;BME280;36811;49.732;13.402;2023-01-09T14:23:24;96601.41;;;7.75;79.45
49040;BME280;36811;49.732;13.402;2023-01-09T14:25:51;96606.19;;;7.73;78.43
49040;BME280;36811;49.732;13.402;2023-01-09T14:28:18;96608.03;;;7.67;79.23
49040;BME280;36811;49.732;13.402;2023-01-09T14:35:46;96597.19;;;7.64;79.11
49040;BME280;36811;49.732;13.402;2023-01-09T14:40:38;96605.91;;;7.44;78.46
49040;BME280;36811;49.732;13.402;2023-01-09T14:43:11;96606.72;;;7.45;79.32
49040;BME280;36811;49.732;13.402;2023-01-09T14:45:38;96607.22;;;7.42;79.41
49040;BME280;36811;49.732;13.402;2023-01-09T14:48:10;96610.69;;;7.42;79.52
49040;BME280;36811;49.732;13.402;2023-01-09T14:50:38;96617.00;;;7.46;79.63
49040;BME280;36811;49.732;13.402;2023-01-09T14:58:58;96625.22;;;7.45;78.73
49040;BME280;36811;49.732;13.402;2023-01-09T15:03:20;96627.06;;;7.49;79.17
49040;BME280;36811;49.732;13.402;2023-01-09T15:05:47;96634.22;;;7.49;78.28
49040;BME280;36811;49.732;13.402;2023-01-09T15:08:14;96628.66;;;7.40;78.10
49040;BME280;36811;49.732;13.402;2023-01-09T15:10:42;96630.53;;;7.45;79.13
49040;BME280;36811;49.732;13.402;2023-01-09T15:13:11;96619.13;;;7.39;78.81
49040;BME280;36811;49.732;13.402;2023-01-09T15:15:42;96633.16;;;7.30;78.29
49040;BME280;36811;49.732;13.402;2023-01-09T15:18:09;96630.78;;;7.23;79.25
49040;BME280;36811;49.732;13.402;2023-01-09T15:20:37;96636.56;;;7.15;78.55